Time,TemperatureF,DewpointF,PressureIn,WindDirection,WindDirectionDegrees,WindSpeedMPH,WindSpeedGustMPH,Humidity,HourlyPrecipIn,Conditions,Clouds,dailyrainin,SolarRadiationWatts/m^2,SoftwareType,DateUTC
2013-09-10 00:01:00,64.3,60.0,29.82,WSW,257,0.0,2.0,86,0.00,,,0.00,0,HR-IXP-WINDi_r2_v1.2,2013-09-10 07:01:00,
2013-09-10 00:06:00,64.3,60.3,29.82,WSW,257,0.0,1.0,87,0.00,,,0.00,0,HR-IXP-WINDi_r2_v1.2,2013-09-10 07:06:00,
2013-09-10 00:11:00,64.2,60.2,29.83,WSW,257,0.0,1.0,87,0.00,,,0.00,0,HR-IXP-WINDi_r2_v1.2,2013-09-10 07:11:00,
2013-09-10 00:17:00,64.3,60.3,29.83,WSW,257,0.0,1.0,87,0.00,,,0.00,0,HR-IXP-WINDi_r2_v1.2,2013-09-10 07:17:00,
2013-09-10 00:22:00,64.3,60.3,29.83,WSW,257,1.0,2.0,87,0.00,,,0.00,0,HR-IXP-WINDi_r2_v1.2,2013-09-10 07:22:00,
2013-09-10 00:27:00,64.4,60.4,29.83,WSW,257,0.0,2.0,87,0.00,,,0.00,0,HR-IXP-WINDi_r2_v1.2,2013-09-10 07:27:00,
2013-09-10 00:32:00,64.3,60.3,29.83,WSW,257,2.0,2.0,87,0.00,,,0.00,0,HR-IXP-WINDi_r2_v1.2,2013-09-10 07:32:00,
2013-09-10 00:37:00,64.2,60.2,29.83,WSW,257,0.0,2.0,87,0.00,,,0.00,0,HR-IXP-WINDi_r2_v1.2,2013-09-10 07:37:00,
2013-09-10 00:42:00,64.1,60.1,29.83,WSW,257,1.0,2.0,87,0.00,,,0.00,0,HR-IXP-WINDi_r2_v1.2,2013-09-10 07:42:00,
2013-09-10 00:47:00,63.9,60.2,29.82,WSW,257,1.0,2.0,88,0.00,,,0.00,0,HR-IXP-WINDi_r2_v1.2,2013-09-10 07:47:00,
2013-09-10 00:52:00,63.9,60.2,29.82,West,259,2.0,3.0,88,0.00,,,0.00,0,HR-IXP-WINDi_r2_v1.2,2013-09-10 07:52:00,
2013-09-10 00:58:00,63.8,60.1,29.82,West,259,1.0,3.0,88,0.00,,,0.00,0,HR-IXP-WINDi_r2_v1.2,2013-09-10 07:58:00,
2013-09-10 01:03:00,63.8,60.1,29.82,West,265,0.0,4.0,88,0.00,,,0.00,0,HR-IXP-WINDi_r2_v1.2,2013-09-10 08:03:00,
2013-09-10 01:08:00,63.7,60.0,29.82,West,268,0.0,4.0,88,0.00,,,0.00,0,HR-IXP-WINDi_r2_v1.2,2013-09-10 08:08:00,
2013-09-10 01:13:00,63.6,59.9,29.82,West,268,1.0,3.0,88,0.00,,,0.00,0,HR-IXP-WINDi_r2_v1.2,2013-09-10 08:13:00,
2013-09-10 01:18:00,63.4,60.0,29.83,West,272,3.0,4.0,89,0.00,,,0.00,0,HR-IXP-WINDi_r2_v1.2,2013-09-10 08:18:00,
2013-09-10 01:23:00,63.3,59.9,29.83,West,279,1.0,4.0,89,0.00,,,0.00,0,HR-IXP-WINDi_r2_v1.2,2013-09-10 08:23:00,
2013-09-10 01:29:00,63.2,59.8,29.83,West,279,1.0,4.0,89,0.00,,,0.00,0,HR-IXP-WINDi_r2_v1.2,2013-09-10 08:29:00,
2013-09-10 01:34:00,63.1,59.7,29.83,West,271,2.0,4.0,89,0.00,,,0.00,0,HR-IXP-WINDi_r2_v1.2,2013-09-10 08:34:00,
2013-09-10 01:39:00,63.0,59.6,29.83,West,271,4.0,4.0,89,0.00,,,0.00,0,HR-IXP-WINDi_r2_v1.2,2013-09-10 08:39:00,
2013-09-10 01:44:00,62.9,59.5,29.83,West,271,1.0,4.0,89,0.00,,,0.00,0,HR-IXP-WINDi_r2_v1.2,2013-09-10 08:44:00,
2013-09-10 01:49:00,62.8,59.8,29.84,West,271,0.0,3.0,90,0.00,,,0.00,0,HR-IXP-WINDi_r2_v1.2,2013-09-10 08:49:00,
2013-09-10 01:55:00,62.6,59.6,29.84,West,271,0.0,2.0,90,0.00,,,0.00,0,HR-IXP-WINDi_r2_v1.2,2013-09-10 08:55:00,
2013-09-10 02:00:00,62.5,59.5,29.84,West,271,1.0,2.0,90,0.00,,,0.00,0,HR-IXP-WINDi_r2_v1.2,2013-09-10 09:00:00,
2013-09-10 02:05:00,62.5,59.5,29.85,West,271,0.0,2.0,90,0.00,,,0.00,0,HR-IXP-WINDi_r2_v1.2,2013-09-10 09:05:00,
2013-09-10 02:10:00,62.4,59.7,29.85,West,271,0.0,2.0,91,0.00,,,0.00,0,HR-IXP-WINDi_r2_v1.2,2013-09-10 09:10:00,
2013-09-10 02:15:00,62.4,59.7,29.85,West,271,0.0,1.0,91,0.00,,,0.00,0,HR-IXP-WINDi_r2_v1.2,2013-09-10 09:15:00,
2013-09-10 02:21:00,62.3,59.6,29.85,West,271,0.0,0.0,91,0.00,,,0.00,0,HR-IXP-WINDi_r2_v1.2,2013-09-10 09:21:00,
2013-09-10 02:26:00,62.2,59.5,29.85,West,271,0.0,0.0,91,0.00,,,0.00,0,HR-IXP-WINDi_r2_v1.2,2013-09-10 09:26:00,
2013-09-10 02:31:00,62.2,59.5,29.84,West,271,0.0,1.0,91,0.00,,,0.00,0,HR-IXP-WINDi_r2_v1.2,2013-09-10 09:31:00,
2013-09-10 02:37:00,62.1,59.4,29.84,West,271,1.0,1.0,91,0.00,,,0.00,0,HR-IXP-WINDi_r2_v1.2,2013-09-10 09:37:00,
2013-09-10 02:42:00,62.1,59.4,29.84,West,271,0.0,1.0,91,0.00,,,0.00,0,HR-IXP-WINDi_r2_v1.2,2013-09-10 09:42:00,
2013-09-10 02:47:00,62.0,59.3,29.84,West,271,0.0,1.0,91,0.00,,,0.00,0,HR-IXP-WINDi_r2_v1.2,2013-09-10 09:47:00,
2013-09-10 02:52:00,62.0,59.6,29.84,West,271,0.0,1.0,92,0.00,,,0.00,0,HR-IXP-WINDi_r2_v1.2,2013-09-10 09:52:00,
2013-09-10 02:57:00,62.0,59.6,29.85,West,271,0.0,1.0,92,0.00,,,0.00,0,HR-IXP-WINDi_r2_v1.2,2013-09-10 09:57:00,
2013-09-10 03:02:00,61.8,59.1,29.85,West,271,0.0,1.0,91,0.00,,,0.00,0,HR-IXP-WINDi_r2_v1.2,2013-09-10 10:02:00,
2013-09-10 03:07:00,61.8,59.4,29.85,West,271,0.0,0.0,92,0.00,,,0.00,0,HR-IXP-WINDi_r2_v1.2,2013-09-10 10:07:00,
2013-09-10 03:13:00,61.8,59.4,29.85,West,271,0.0,1.0,92,0.00,,,0.00,0,HR-IXP-WINDi_r2_v1.2,2013-09-10 10:13:00,
2013-09-10 03:18:00,61.9,59.5,29.85,West,271,0.0,1.0,92,0.00,,,0.00,0,HR-IXP-WINDi_r2_v1.2,2013-09-10 10:18:00,
2013-09-10 03:23:00,62.0,59.6,29.86,West,271,1.0,1.0,92,0.00,,,0.00,0,HR-IXP-WINDi_r2_v1.2,2013-09-10 10:23:00,
2013-09-10 03:28:00,62.0,59.6,29.85,West,271,0.0,2.0,92,0.00,,,0.00,0,HR-IXP-WINDi_r2_v1.2,2013-09-10 10:28:00,
2013-09-10 03:33:00,62.0,59.6,29.86,West,271,1.0,3.0,92,0.00,,,0.00,0,HR-IXP-WINDi_r2_v1.2,2013-09-10 10:33:00,
2013-09-10 03:39:00,62.1,59.7,29.86,West,271,0.0,3.0,92,0.00,,,0.00,0,HR-IXP-WINDi_r2_v1.2,2013-09-10 10:39:00,
2013-09-10 03:44:00,62.2,59.8,29.86,West,271,0.0,2.0,92,0.00,,,0.00,0,HR-IXP-WINDi_r2_v1.2,2013-09-10 10:44:00,
2013-09-10 03:49:00,62.3,59.9,29.86,West,271,0.0,2.0,92,0.00,,,0.00,0,HR-IXP-WINDi_r2_v1.2,2013-09-10 10:49:00,
2013-09-10 03:54:00,62.4,60.0,29.86,West,271,0.0,2.0,92,0.00,,,0.00,0,HR-IXP-WINDi_r2_v1.2,2013-09-10 10:54:00,
2013-09-10 03:59:00,62.5,59.8,29.86,West,271,0.0,2.0,91,0.00,,,0.00,0,HR-IXP-WINDi_r2_v1.2,2013-09-10 10:59:00,
2013-09-10 04:04:00,62.6,59.9,29.86,West,271,1.0,2.0,91,0.00,,,0.00,0,HR-IXP-WINDi_r2_v1.2,2013-09-10 11:04:00,
2013-09-10 04:10:00,62.7,60.0,29.86,West,271,0.0,2.0,91,0.00,,,0.00,0,HR-IXP-WINDi_r2_v1.2,2013-09-10 11:10:00,
2013-09-10 04:15:00,62.8,60.1,29.86,West,271,1.0,1.0,91,0.00,,,0.00,0,HR-IXP-WINDi_r2_v1.2,2013-09-10 11:15:00,
2013-09-10 04:20:00,62.9,60.2,29.86,West,271,0.0,1.0,91,0.00,,,0.00,0,HR-IXP-WINDi_r2_v1.2,2013-09-10 11:20:00,
2013-09-10 04:25:00,63.0,60.3,29.86,West,271,0.0,1.0,91,0.00,,,0.00,0,HR-IXP-WINDi_r2_v1.2,2013-09-10 11:25:00,
2013-09-10 04:31:00,63.0,60.3,29.86,West,271,0.0,2.0,91,0.00,,,0.00,0,HR-IXP-WINDi_r2_v1.2,2013-09-10 11:31:00,
2013-09-10 04:36:00,63.0,60.0,29.86,West,271,0.0,2.0,90,0.00,,,0.00,0,HR-IXP-WINDi_r2_v1.2,2013-09-10 11:36:00,
2013-09-10 04:41:00,63.1,60.1,29.86,West,271,0.0,1.0,90,0.00,,,0.00,0,HR-IXP-WINDi_r2_v1.2,2013-09-10 11:41:00,
2013-09-10 04:46:00,63.3,60.2,29.86,West,271,0.0,1.0,90,0.00,,,0.00,0,HR-IXP-WINDi_r2_v1.2,2013-09-10 11:46:00,
2013-09-10 04:51:00,63.3,60.2,29.86,West,271,0.0,1.0,90,0.00,,,0.00,0,HR-IXP-WINDi_r2_v1.2,2013-09-10 11:51:00,
2013-09-10 04:57:00,63.4,60.3,29.86,West,271,0.0,0.0,90,0.00,,,0.00,0,HR-IXP-WINDi_r2_v1.2,2013-09-10 11:57:00,
2013-09-10 05:02:00,63.4,60.3,29.86,West,271,0.0,1.0,90,0.00,,,0.00,0,HR-IXP-WINDi_r2_v1.2,2013-09-10 12:02:00,
2013-09-10 05:07:00,63.5,60.4,29.86,West,271,0.0,1.0,90,0.00,,,0.00,0,HR-IXP-WINDi_r2_v1.2,2013-09-10 12:07:00,
2013-09-10 05:12:00,63.6,60.5,29.86,West,271,1.0,3.0,90,0.00,,,0.00,0,HR-IXP-WINDi_r2_v1.2,2013-09-10 12:12:00,
2013-09-10 05:17:00,63.6,60.5,29.86,West,271,0.0,3.0,90,0.00,,,0.00,0,HR-IXP-WINDi_r2_v1.2,2013-09-10 12:17:00,
2013-09-10 05:23:00,63.6,60.5,29.86,West,271,0.0,2.0,90,0.00,,,0.00,0,HR-IXP-WINDi_r2_v1.2,2013-09-10 12:23:00,
2013-09-10 05:28:00,63.6,60.5,29.87,West,271,0.0,1.0,90,0.00,,,0.00,0,HR-IXP-WINDi_r2_v1.2,2013-09-10 12:28:00,
2013-09-10 05:33:00,63.7,60.6,29.86,West,271,1.0,3.0,90,0.00,,,0.00,0,HR-IXP-WINDi_r2_v1.2,2013-09-10 12:33:00,
2013-09-10 05:39:00,63.7,60.6,29.87,West,271,0.0,3.0,90,0.00,,,0.00,0,HR-IXP-WINDi_r2_v1.2,2013-09-10 12:39:00,
2013-09-10 05:44:00,63.8,60.7,29.87,West,271,1.0,2.0,90,0.00,,,0.00,0,HR-IXP-WINDi_r2_v1.2,2013-09-10 12:44:00,
2013-09-10 05:49:00,63.7,60.6,29.87,West,271,0.0,2.0,90,0.00,,,0.00,0,HR-IXP-WINDi_r2_v1.2,2013-09-10 12:49:00,
2013-09-10 05:54:00,63.8,60.7,29.87,West,271,1.0,3.0,90,0.00,,,0.00,0,HR-IXP-WINDi_r2_v1.2,2013-09-10 12:54:00,
2013-09-10 06:00:00,63.8,60.4,29.87,West,271,0.0,3.0,89,0.00,,,0.00,0,HR-IXP-WINDi_r2_v1.2,2013-09-10 13:00:00,
2013-09-10 06:05:00,63.8,60.4,29.87,West,271,0.0,2.0,89,0.00,,,0.00,0,HR-IXP-WINDi_r2_v1.2,2013-09-10 13:05:00,
2013-09-10 06:10:00,63.9,60.5,29.87,West,271,0.0,2.0,89,0.00,,,0.00,0,HR-IXP-WINDi_r2_v1.2,2013-09-10 13:10:00,
2013-09-10 06:15:00,64.0,60.6,29.87,West,271,0.0,1.0,89,0.00,,,0.00,0,HR-IXP-WINDi_r2_v1.2,2013-09-10 13:15:00,
2013-09-10 06:20:00,64.0,60.3,29.88,West,271,1.0,1.0,88,0.00,,,0.00,0,HR-IXP-WINDi_r2_v1.2,2013-09-10 13:20:00,
2013-09-10 06:25:00,64.1,60.4,29.88,West,271,0.0,1.0,88,0.00,,,0.00,0,HR-IXP-WINDi_r2_v1.2,2013-09-10 13:25:00,
2013-09-10 06:30:00,64.1,60.4,29.88,West,271,0.0,1.0,88,0.00,,,0.00,0,HR-IXP-WINDi_r2_v1.2,2013-09-10 13:30:00,
2013-09-10 06:36:00,64.2,60.2,29.88,West,271,0.0,1.0,87,0.00,,,0.00,0,HR-IXP-WINDi_r2_v1.2,2013-09-10 13:36:00,
2013-09-10 06:41:00,64.2,60.2,29.88,West,271,0.0,1.0,87,0.00,,,0.00,0,HR-IXP-WINDi_r2_v1.2,2013-09-10 13:41:00,
2013-09-10 06:46:00,64.2,60.2,29.88,SW,215,0.0,2.0,87,0.00,,,0.00,5,HR-IXP-WINDi_r2_v1.2,2013-09-10 13:46:00,
2013-09-10 06:51:00,64.2,60.2,29.88,SW,215,0.0,2.0,87,0.00,,,0.00,11,HR-IXP-WINDi_r2_v1.2,2013-09-10 13:51:00,
2013-09-10 06:56:00,64.2,60.2,29.89,SW,215,0.0,2.0,87,0.00,,,0.00,11,HR-IXP-WINDi_r2_v1.2,2013-09-10 13:56:00,
2013-09-10 07:01:00,64.2,60.2,29.89,SW,215,0.0,2.0,87,0.00,,,0.00,16,HR-IXP-WINDi_r2_v1.2,2013-09-10 14:01:00,
2013-09-10 07:07:00,64.3,60.3,29.89,SW,215,0.0,2.0,87,0.00,,,0.00,21,HR-IXP-WINDi_r2_v1.2,2013-09-10 14:07:00,
2013-09-10 07:12:00,64.5,60.2,29.89,SW,215,0.0,1.0,86,0.00,,,0.00,21,HR-IXP-WINDi_r2_v1.2,2013-09-10 14:12:00,
2013-09-10 07:17:00,64.6,60.3,29.89,South,180,0.0,2.0,86,0.00,,,0.00,44,HR-IXP-WINDi_r2_v1.2,2013-09-10 14:17:00,
2013-09-10 07:22:00,64.7,60.3,29.89,South,180,2.0,2.0,86,0.00,,,0.00,33,HR-IXP-WINDi_r2_v1.2,2013-09-10 14:22:00,
2013-09-10 07:27:00,64.8,60.4,29.90,South,178,0.0,3.0,86,0.00,,,0.00,54,HR-IXP-WINDi_r2_v1.2,2013-09-10 14:27:00,
2013-09-10 07:33:00,64.9,60.2,29.90,South,175,0.0,3.0,85,0.00,,,0.00,54,HR-IXP-WINDi_r2_v1.2,2013-09-10 14:33:00,
2013-09-10 07:38:00,65.0,60.3,29.90,South,173,0.0,3.0,85,0.00,,,0.00,58,HR-IXP-WINDi_r2_v1.2,2013-09-10 14:38:00,
2013-09-10 07:43:00,65.0,60.3,29.90,South,173,1.0,3.0,85,0.00,,,0.00,70,HR-IXP-WINDi_r2_v1.2,2013-09-10 14:43:00,
2013-09-10 07:48:00,65.1,60.4,29.90,South,171,3.0,3.0,85,0.00,,,0.00,60,HR-IXP-WINDi_r2_v1.2,2013-09-10 14:48:00,
2013-09-10 07:53:00,65.2,60.5,29.90,SSE,166,0.0,4.0,85,0.00,,,0.00,56,HR-IXP-WINDi_r2_v1.2,2013-09-10 14:53:00,
2013-09-10 07:58:00,65.2,60.2,29.90,SSE,163,1.0,4.0,84,0.00,,,0.00,77,HR-IXP-WINDi_r2_v1.2,2013-09-10 14:58:00,
2013-09-10 08:03:00,65.3,60.3,29.90,SSE,158,1.0,4.0,84,0.00,,,0.00,93,HR-IXP-WINDi_r2_v1.2,2013-09-10 15:03:00,
2013-09-10 08:09:00,65.5,60.5,29.90,SSE,158,1.0,4.0,84,0.00,,,0.00,104,HR-IXP-WINDi_r2_v1.2,2013-09-10 15:09:00,
2013-09-10 08:14:00,65.7,60.3,29.91,SSE,157,0.0,2.0,83,0.00,,,0.00,104,HR-IXP-WINDi_r2_v1.2,2013-09-10 15:14:00,
2013-09-10 08:19:00,65.9,60.5,29.91,SSE,157,0.0,2.0,83,0.00,,,0.00,113,HR-IXP-WINDi_r2_v1.2,2013-09-10 15:19:00,
2013-09-10 08:24:00,66.1,60.7,29.91,SSE,158,1.0,2.0,83,0.00,,,0.00,98,HR-IXP-WINDi_r2_v1.2,2013-09-10 15:24:00,
2013-09-10 08:29:00,66.1,60.4,29.91,SSE,153,0.0,3.0,82,0.00,,,0.00,93,HR-IXP-WINDi_r2_v1.2,2013-09-10 15:29:00,
2013-09-10 08:34:00,66.3,60.6,29.91,SSE,153,1.0,3.0,82,0.00,,,0.00,114,HR-IXP-WINDi_r2_v1.2,2013-09-10 15:34:00,
2013-09-10 08:40:00,66.8,61.4,29.91,SE,146,0.0,3.0,83,0.00,,,0.00,220,HR-IXP-WINDi_r2_v1.2,2013-09-10 15:40:00,
2013-09-10 08:45:00,67.1,61.4,29.91,SSE,147,0.0,3.0,82,0.00,,,0.00,179,HR-IXP-WINDi_r2_v1.2,2013-09-10 15:45:00,
2013-09-10 08:50:00,66.8,60.7,29.91,SW,234,1.0,4.0,81,0.00,,,0.00,292,HR-IXP-WINDi_r2_v1.2,2013-09-10 15:50:00,
2013-09-10 08:55:00,67.7,61.6,29.91,SW,234,0.0,4.0,81,0.00,,,0.00,394,HR-IXP-WINDi_r2_v1.2,2013-09-10 15:55:00,
2013-09-10 09:00:00,67.9,61.4,29.91,SSW,203,1.0,4.0,80,0.00,,,0.00,410,HR-IXP-WINDi_r2_v1.2,2013-09-10 16:00:00,
2013-09-10 09:06:00,68.4,61.6,29.91,South,178,0.0,4.0,79,0.00,,,0.00,408,HR-IXP-WINDi_r2_v1.2,2013-09-10 16:06:00,
2013-09-10 09:11:00,68.5,61.7,29.92,West,259,3.0,4.0,79,0.00,,,0.00,392,HR-IXP-WINDi_r2_v1.2,2013-09-10 16:11:00,
2013-09-10 09:16:00,68.1,61.3,29.92,SW,216,3.0,4.0,79,0.00,,,0.00,388,HR-IXP-WINDi_r2_v1.2,2013-09-10 16:16:00,
2013-09-10 09:21:00,67.7,60.9,29.92,SW,214,0.0,5.0,79,0.00,,,0.00,427,HR-IXP-WINDi_r2_v1.2,2013-09-10 16:21:00,
2013-09-10 09:26:00,68.5,61.7,29.92,SSW,196,1.0,5.0,79,0.00,,,0.00,459,HR-IXP-WINDi_r2_v1.2,2013-09-10 16:26:00,
2013-09-10 09:32:00,69.5,61.5,29.92,South,173,2.0,4.0,76,0.00,,,0.00,469,HR-IXP-WINDi_r2_v1.2,2013-09-10 16:32:00,
2013-09-10 09:37:00,68.9,61.3,29.92,South,188,0.0,5.0,77,0.00,,,0.00,483,HR-IXP-WINDi_r2_v1.2,2013-09-10 16:37:00,
2013-09-10 09:42:00,68.8,61.2,29.92,SW,224,1.0,5.0,77,0.00,,,0.00,499,HR-IXP-WINDi_r2_v1.2,2013-09-10 16:42:00,
2013-09-10 09:47:00,69.9,62.3,29.92,South,178,1.0,5.0,77,0.00,,,0.00,510,HR-IXP-WINDi_r2_v1.2,2013-09-10 16:47:00,
2013-09-10 09:53:00,69.6,61.3,29.91,South,186,0.0,4.0,75,0.00,,,0.00,526,HR-IXP-WINDi_r2_v1.2,2013-09-10 16:53:00,
2013-09-10 09:58:00,70.0,61.6,29.91,South,186,1.0,3.0,75,0.00,,,0.00,540,HR-IXP-WINDi_r2_v1.2,2013-09-10 16:58:00,
2013-09-10 10:03:00,72.3,62.7,29.91,SE,145,3.0,4.0,72,0.00,,,0.00,547,HR-IXP-WINDi_r2_v1.2,2013-09-10 17:03:00,
2013-09-10 10:08:00,71.7,61.3,29.91,South,177,2.0,5.0,70,0.00,,,0.00,559,HR-IXP-WINDi_r2_v1.2,2013-09-10 17:08:00,
2013-09-10 10:13:00,71.7,62.1,29.91,SSE,157,1.0,5.0,72,0.00,,,0.00,571,HR-IXP-WINDi_r2_v1.2,2013-09-10 17:13:00,
2013-09-10 10:18:00,72.7,61.9,29.91,SW,227,4.0,5.0,69,0.00,,,0.00,577,HR-IXP-WINDi_r2_v1.2,2013-09-10 17:18:00,
2013-09-10 10:24:00,73.4,64.2,29.91,South,173,0.0,4.0,73,0.00,,,0.00,598,HR-IXP-WINDi_r2_v1.2,2013-09-10 17:24:00,
2013-09-10 10:29:00,72.8,61.6,29.91,SW,218,3.0,6.0,68,0.00,,,0.00,608,HR-IXP-WINDi_r2_v1.2,2013-09-10 17:29:00,
2013-09-10 10:34:00,74.9,63.6,29.91,SSE,150,0.0,6.0,68,0.00,,,0.00,584,HR-IXP-WINDi_r2_v1.2,2013-09-10 17:34:00,
2013-09-10 10:39:00,73.4,62.1,29.91,WNW,290,0.0,4.0,68,0.00,,,0.00,615,HR-IXP-WINDi_r2_v1.2,2013-09-10 17:39:00,
2013-09-10 10:45:00,72.7,62.7,29.91,WNW,290,3.0,4.0,71,0.00,,,0.00,626,HR-IXP-WINDi_r2_v1.2,2013-09-10 17:45:00,
2013-09-10 10:50:00,73.2,63.2,29.91,SW,219,7.0,7.0,71,0.00,,,0.00,647,HR-IXP-WINDi_r2_v1.2,2013-09-10 17:50:00,
2013-09-10 10:55:00,72.1,62.1,29.91,WSW,238,4.0,8.0,71,0.00,,,0.00,661,HR-IXP-WINDi_r2_v1.2,2013-09-10 17:55:00,
2013-09-10 11:00:00,71.9,61.9,29.91,SSE,163,4.0,8.0,71,0.00,,,0.00,659,HR-IXP-WINDi_r2_v1.2,2013-09-10 18:00:00,
2013-09-10 11:05:00,72.1,61.7,29.91,SW,215,6.0,7.0,70,0.00,,,0.00,664,HR-IXP-WINDi_r2_v1.2,2013-09-10 18:05:00,
2013-09-10 11:10:00,72.1,62.1,29.91,SW,229,3.0,7.0,71,0.00,,,0.00,673,HR-IXP-WINDi_r2_v1.2,2013-09-10 18:10:00,
2013-09-10 11:15:00,72.0,61.6,29.91,SW,229,3.0,7.0,70,0.00,,,0.00,679,HR-IXP-WINDi_r2_v1.2,2013-09-10 18:15:00,
2013-09-10 11:20:00,72.3,62.7,29.91,SW,225,4.0,7.0,72,0.00,,,0.00,680,HR-IXP-WINDi_r2_v1.2,2013-09-10 18:20:00,
2013-09-10 11:26:00,72.1,62.1,29.91,South,178,2.0,7.0,71,0.00,,,0.00,687,HR-IXP-WINDi_r2_v1.2,2013-09-10 18:26:00,
2013-09-10 11:31:00,71.9,61.9,29.91,WSW,246,0.0,7.0,71,0.00,,,0.00,700,HR-IXP-WINDi_r2_v1.2,2013-09-10 18:31:00,
2013-09-10 11:36:00,72.9,63.3,29.91,South,184,2.0,6.0,72,0.00,,,0.00,708,HR-IXP-WINDi_r2_v1.2,2013-09-10 18:36:00,
2013-09-10 11:41:00,73.1,62.7,29.91,SW,217,0.0,8.0,70,0.00,,,0.00,717,HR-IXP-WINDi_r2_v1.2,2013-09-10 18:41:00,
2013-09-10 11:46:00,72.8,62.4,29.91,SW,227,3.0,8.0,70,0.00,,,0.00,721,HR-IXP-WINDi_r2_v1.2,2013-09-10 18:46:00,
2013-09-10 11:51:00,73.1,62.7,29.91,SSE,166,4.0,7.0,70,0.00,,,0.00,728,HR-IXP-WINDi_r2_v1.2,2013-09-10 18:51:00,
2013-09-10 11:57:00,73.3,62.9,29.90,West,259,4.0,7.0,70,0.00,,,0.00,733,HR-IXP-WINDi_r2_v1.2,2013-09-10 18:57:00,
2013-09-10 12:02:00,73.4,62.6,29.90,South,179,3.0,7.0,69,0.00,,,0.00,735,HR-IXP-WINDi_r2_v1.2,2013-09-10 19:02:00,
2013-09-10 12:07:00,74.3,63.8,29.90,SSW,192,4.0,9.0,70,0.00,,,0.00,742,HR-IXP-WINDi_r2_v1.2,2013-09-10 19:07:00,
2013-09-10 12:12:00,74.5,62.8,29.90,SW,219,4.0,9.0,67,0.00,,,0.00,745,HR-IXP-WINDi_r2_v1.2,2013-09-10 19:12:00,
2013-09-10 12:17:00,74.0,62.3,29.90,SW,226,5.0,8.0,67,0.00,,,0.00,752,HR-IXP-WINDi_r2_v1.2,2013-09-10 19:17:00,
2013-09-10 12:22:00,73.5,61.8,29.90,WSW,252,5.0,8.0,67,0.00,,,0.00,754,HR-IXP-WINDi_r2_v1.2,2013-09-10 19:22:00,
2013-09-10 12:27:00,73.4,61.7,29.90,SW,232,4.0,10.0,67,0.00,,,0.00,759,HR-IXP-WINDi_r2_v1.2,2013-09-10 19:27:00,
2013-09-10 12:32:00,73.3,62.5,29.90,West,279,3.0,10.0,69,0.00,,,0.00,759,HR-IXP-WINDi_r2_v1.2,2013-09-10 19:32:00,
2013-09-10 12:38:00,73.1,62.3,29.90,South,180,3.0,9.0,69,0.00,,,0.00,752,HR-IXP-WINDi_r2_v1.2,2013-09-10 19:38:00,
2013-09-10 12:43:00,74.0,62.7,29.90,WSW,241,2.0,8.0,68,0.00,,,0.00,761,HR-IXP-WINDi_r2_v1.2,2013-09-10 19:43:00,
2013-09-10 12:48:00,74.2,62.5,29.90,SW,229,3.0,7.0,67,0.00,,,0.00,765,HR-IXP-WINDi_r2_v1.2,2013-09-10 19:48:00,
2013-09-10 12:53:00,74.4,62.2,29.90,SSW,198,3.0,7.0,66,0.00,,,0.00,765,HR-IXP-WINDi_r2_v1.2,2013-09-10 19:53:00,
2013-09-10 12:59:00,74.3,62.1,29.90,WSW,257,5.0,7.0,66,0.00,,,0.00,765,HR-IXP-WINDi_r2_v1.2,2013-09-10 19:59:00,
2013-09-10 13:04:00,75.0,63.2,29.89,SW,222,7.0,8.0,67,0.00,,,0.00,765,HR-IXP-WINDi_r2_v1.2,2013-09-10 20:04:00,
2013-09-10 13:09:00,75.1,62.9,29.89,SW,218,4.0,9.0,66,0.00,,,0.00,763,HR-IXP-WINDi_r2_v1.2,2013-09-10 20:09:00,
2013-09-10 13:14:00,75.5,62.9,29.89,SW,229,5.0,7.0,65,0.00,,,0.00,763,HR-IXP-WINDi_r2_v1.2,2013-09-10 20:14:00,
2013-09-10 13:19:00,75.2,62.1,29.89,South,184,5.0,9.0,64,0.00,,,0.00,756,HR-IXP-WINDi_r2_v1.2,2013-09-10 20:19:00,
2013-09-10 13:25:00,74.9,62.3,29.89,SW,235,5.0,11.0,65,0.00,,,0.00,756,HR-IXP-WINDi_r2_v1.2,2013-09-10 20:25:00,
2013-09-10 13:30:00,74.3,62.1,29.89,South,179,3.0,11.0,66,0.00,,,0.00,747,HR-IXP-WINDi_r2_v1.2,2013-09-10 20:30:00,
2013-09-10 13:35:00,74.1,62.4,29.89,WSW,257,1.0,8.0,67,0.00,,,0.00,747,HR-IXP-WINDi_r2_v1.2,2013-09-10 20:35:00,
2013-09-10 13:40:00,74.8,62.2,29.88,SSE,153,5.0,9.0,65,0.00,,,0.00,742,HR-IXP-WINDi_r2_v1.2,2013-09-10 20:40:00,
2013-09-10 13:46:00,75.3,63.1,29.88,SW,231,9.0,9.0,66,0.00,,,0.00,738,HR-IXP-WINDi_r2_v1.2,2013-09-10 20:46:00,
2013-09-10 13:51:00,76.1,63.4,29.88,SSW,208,4.0,10.0,65,0.00,,,0.00,731,HR-IXP-WINDi_r2_v1.2,2013-09-10 20:51:00,
2013-09-10 13:56:00,75.4,61.9,29.88,WSW,238,3.0,9.0,63,0.00,,,0.00,729,HR-IXP-WINDi_r2_v1.2,2013-09-10 20:56:00,
2013-09-10 14:01:00,75.4,62.8,29.88,South,177,7.0,9.0,65,0.00,,,0.00,726,HR-IXP-WINDi_r2_v1.2,2013-09-10 21:01:00,
2013-09-10 14:06:00,75.2,63.0,29.88,South,173,1.0,9.0,66,0.00,,,0.00,719,HR-IXP-WINDi_r2_v1.2,2013-09-10 21:06:00,
2013-09-10 14:11:00,75.1,62.9,29.88,SSW,207,4.0,10.0,66,0.00,,,0.00,715,HR-IXP-WINDi_r2_v1.2,2013-09-10 21:11:00,
2013-09-10 14:16:00,76.6,63.9,29.88,SSW,192,2.0,10.0,65,0.00,,,0.00,701,HR-IXP-WINDi_r2_v1.2,2013-09-10 21:16:00,
2013-09-10 14:22:00,75.8,62.7,29.88,SSW,205,3.0,10.0,64,0.00,,,0.00,698,HR-IXP-WINDi_r2_v1.2,2013-09-10 21:22:00,
2013-09-10 14:27:00,75.6,63.0,29.88,SW,219,6.0,10.0,65,0.00,,,0.00,689,HR-IXP-WINDi_r2_v1.2,2013-09-10 21:27:00,
2013-09-10 14:32:00,75.1,62.5,29.87,South,171,2.0,10.0,65,0.00,,,0.00,680,HR-IXP-WINDi_r2_v1.2,2013-09-10 21:32:00,
2013-09-10 14:37:00,75.7,62.6,29.87,SW,214,3.0,9.0,64,0.00,,,0.00,675,HR-IXP-WINDi_r2_v1.2,2013-09-10 21:37:00,
2013-09-10 14:42:00,74.9,62.3,29.87,SSW,211,6.0,9.0,65,0.00,,,0.00,664,HR-IXP-WINDi_r2_v1.2,2013-09-10 21:42:00,
2013-09-10 14:48:00,75.1,62.9,29.87,SW,227,3.0,10.0,66,0.00,,,0.00,657,HR-IXP-WINDi_r2_v1.2,2013-09-10 21:48:00,
2013-09-10 14:53:00,76.0,62.9,29.87,South,182,3.0,10.0,64,0.00,,,0.00,649,HR-IXP-WINDi_r2_v1.2,2013-09-10 21:53:00,
2013-09-10 14:58:00,75.5,62.4,29.87,SW,215,2.0,10.0,64,0.00,,,0.00,640,HR-IXP-WINDi_r2_v1.2,2013-09-10 21:58:00,
2013-09-10 15:03:00,75.2,62.1,29.87,SW,229,3.0,10.0,64,0.00,,,0.00,628,HR-IXP-WINDi_r2_v1.2,2013-09-10 22:03:00,
2013-09-10 15:08:00,75.9,63.2,29.87,SSW,193,2.0,9.0,65,0.00,,,0.00,617,HR-IXP-WINDi_r2_v1.2,2013-09-10 22:08:00,
2013-09-10 15:14:00,75.7,63.0,29.87,South,191,3.0,7.0,65,0.00,,,0.00,603,HR-IXP-WINDi_r2_v1.2,2013-09-10 22:14:00,
2013-09-10 15:19:00,75.5,62.9,29.86,SW,227,3.0,7.0,65,0.00,,,0.00,591,HR-IXP-WINDi_r2_v1.2,2013-09-10 22:19:00,
2013-09-10 15:24:00,75.4,62.3,29.86,SSW,204,6.0,7.0,64,0.00,,,0.00,575,HR-IXP-WINDi_r2_v1.2,2013-09-10 22:24:00,
2013-09-10 15:30:00,75.5,62.9,29.86,SW,216,8.0,8.0,65,0.00,,,0.00,490,HR-IXP-WINDi_r2_v1.2,2013-09-10 22:30:00,
2013-09-10 15:35:00,75.1,62.5,29.86,WSW,256,2.0,10.0,65,0.00,,,0.00,483,HR-IXP-WINDi_r2_v1.2,2013-09-10 22:35:00,
2013-09-10 15:40:00,75.4,63.2,29.86,South,181,1.0,10.0,66,0.00,,,0.00,380,HR-IXP-WINDi_r2_v1.2,2013-09-10 22:40:00,
2013-09-10 15:45:00,75.3,62.7,29.86,SW,226,7.0,9.0,65,0.00,,,0.00,320,HR-IXP-WINDi_r2_v1.2,2013-09-10 22:45:00,
2013-09-10 15:50:00,75.1,62.5,29.86,SSW,194,2.0,10.0,65,0.00,,,0.00,325,HR-IXP-WINDi_r2_v1.2,2013-09-10 22:50:00,
2013-09-10 15:56:00,75.3,62.2,29.86,SW,221,6.0,10.0,64,0.00,,,0.00,371,HR-IXP-WINDi_r2_v1.2,2013-09-10 22:56:00,
2013-09-10 16:01:00,74.6,62.4,29.86,SW,221,8.0,10.0,66,0.00,,,0.00,394,HR-IXP-WINDi_r2_v1.2,2013-09-10 23:01:00,
2013-09-10 16:06:00,75.8,62.7,29.86,South,190,2.0,10.0,64,0.00,,,0.00,406,HR-IXP-WINDi_r2_v1.2,2013-09-10 23:06:00,
2013-09-10 16:11:00,75.5,62.9,29.86,South,173,2.0,10.0,65,0.00,,,0.00,415,HR-IXP-WINDi_r2_v1.2,2013-09-10 23:11:00,
2013-09-10 16:16:00,74.7,62.1,29.86,SW,229,7.0,11.0,65,0.00,,,0.00,422,HR-IXP-WINDi_r2_v1.2,2013-09-10 23:16:00,
2013-09-10 16:21:00,74.1,61.5,29.86,SW,229,2.0,11.0,65,0.00,,,0.00,422,HR-IXP-WINDi_r2_v1.2,2013-09-10 23:21:00,
2013-09-10 16:26:00,74.2,62.1,29.86,SW,217,2.0,10.0,66,0.00,,,0.00,413,HR-IXP-WINDi_r2_v1.2,2013-09-10 23:26:00,
2013-09-10 16:31:00,75.1,62.9,29.86,SSW,195,4.0,10.0,66,0.00,,,0.00,399,HR-IXP-WINDi_r2_v1.2,2013-09-10 23:31:00,
2013-09-10 16:36:00,74.8,61.8,29.86,South,181,5.0,9.0,64,0.00,,,0.00,383,HR-IXP-WINDi_r2_v1.2,2013-09-10 23:36:00,
2013-09-10 16:41:00,74.8,62.2,29.86,SW,219,3.0,8.0,65,0.00,,,0.00,306,HR-IXP-WINDi_r2_v1.2,2013-09-10 23:41:00,
2013-09-10 16:46:00,74.5,61.0,29.86,SW,226,3.0,11.0,63,0.00,,,0.00,353,HR-IXP-WINDi_r2_v1.2,2013-09-10 23:46:00,
2013-09-10 16:52:00,73.3,60.8,29.86,SW,219,5.0,12.0,65,0.00,,,0.00,339,HR-IXP-WINDi_r2_v1.2,2013-09-10 23:52:00,
2013-09-10 16:57:00,72.9,61.2,29.86,SW,228,3.0,12.0,67,0.00,,,0.00,318,HR-IXP-WINDi_r2_v1.2,2013-09-10 23:57:00,
2013-09-10 17:02:00,72.8,61.1,29.86,South,177,4.0,11.0,67,0.00,,,0.00,302,HR-IXP-WINDi_r2_v1.2,2013-09-11 00:02:00,
2013-09-10 17:08:00,72.5,60.9,29.86,South,188,8.0,11.0,67,0.00,,,0.00,285,HR-IXP-WINDi_r2_v1.2,2013-09-11 00:08:00,
2013-09-10 17:13:00,72.3,60.7,29.86,WSW,241,8.0,11.0,67,0.00,,,0.00,271,HR-IXP-WINDi_r2_v1.2,2013-09-11 00:13:00,
2013-09-10 17:18:00,72.4,61.2,29.86,SW,217,8.0,9.0,68,0.00,,,0.00,253,HR-IXP-WINDi_r2_v1.2,2013-09-11 00:18:00,
2013-09-10 17:23:00,72.3,61.5,29.86,SW,230,2.0,10.0,69,0.00,,,0.00,236,HR-IXP-WINDi_r2_v1.2,2013-09-11 00:23:00,
2013-09-10 17:28:00,72.5,60.9,29.86,SSW,196,4.0,10.0,67,0.00,,,0.00,221,HR-IXP-WINDi_r2_v1.2,2013-09-11 00:28:00,
2013-09-10 17:33:00,72.0,61.2,29.87,SW,216,2.0,7.0,69,0.00,,,0.00,162,HR-IXP-WINDi_r2_v1.2,2013-09-11 00:33:00,
2013-09-10 17:39:00,72.2,61.4,29.87,SSW,194,2.0,7.0,69,0.00,,,0.00,192,HR-IXP-WINDi_r2_v1.2,2013-09-11 00:39:00,
2013-09-10 17:44:00,71.9,60.7,29.87,SW,232,5.0,9.0,68,0.00,,,0.00,171,HR-IXP-WINDi_r2_v1.2,2013-09-11 00:44:00,
2013-09-10 17:49:00,71.3,60.5,29.87,SW,219,4.0,10.0,69,0.00,,,0.00,153,HR-IXP-WINDi_r2_v1.2,2013-09-11 00:49:00,
2013-09-10 17:54:00,71.2,60.5,29.87,SSW,209,5.0,10.0,69,0.00,,,0.00,134,HR-IXP-WINDi_r2_v1.2,2013-09-11 00:54:00,
2013-09-10 17:59:00,71.2,60.5,29.87,SSW,203,2.0,9.0,69,0.00,,,0.00,118,HR-IXP-WINDi_r2_v1.2,2013-09-11 00:59:00,
2013-09-10 18:05:00,71.2,60.5,29.87,South,186,3.0,9.0,69,0.00,,,0.00,104,HR-IXP-WINDi_r2_v1.2,2013-09-11 01:05:00,
2013-09-10 18:10:00,71.2,60.5,29.88,South,190,4.0,9.0,69,0.00,,,0.00,88,HR-IXP-WINDi_r2_v1.2,2013-09-11 01:10:00,
2013-09-10 18:15:00,71.1,60.8,29.88,South,183,2.0,9.0,70,0.00,,,0.00,76,HR-IXP-WINDi_r2_v1.2,2013-09-11 01:15:00,
2013-09-10 18:20:00,70.8,60.9,29.88,SW,221,2.0,7.0,71,0.00,,,0.00,63,HR-IXP-WINDi_r2_v1.2,2013-09-11 01:20:00,
2013-09-10 18:26:00,70.4,60.9,29.88,South,179,4.0,9.0,72,0.00,,,0.00,53,HR-IXP-WINDi_r2_v1.2,2013-09-11 01:26:00,
2013-09-10 18:31:00,70.2,60.7,29.88,SSW,197,2.0,9.0,72,0.00,,,0.00,40,HR-IXP-WINDi_r2_v1.2,2013-09-11 01:31:00,
2013-09-10 18:36:00,70.1,60.6,29.88,SW,214,2.0,7.0,72,0.00,,,0.00,32,HR-IXP-WINDi_r2_v1.2,2013-09-11 01:36:00,
2013-09-10 18:41:00,69.9,60.4,29.88,SW,221,2.0,7.0,72,0.00,,,0.00,25,HR-IXP-WINDi_r2_v1.2,2013-09-11 01:41:00,
2013-09-10 18:46:00,69.5,60.4,29.89,SSW,206,1.0,6.0,73,0.00,,,0.00,18,HR-IXP-WINDi_r2_v1.2,2013-09-11 01:46:00,
2013-09-10 18:51:00,69.4,60.3,29.89,South,178,2.0,6.0,73,0.00,,,0.00,12,HR-IXP-WINDi_r2_v1.2,2013-09-11 01:51:00,
2013-09-10 18:56:00,69.0,59.9,29.89,SSW,210,3.0,7.0,73,0.00,,,0.00,7,HR-IXP-WINDi_r2_v1.2,2013-09-11 01:56:00,
2013-09-10 19:01:00,68.7,60.0,29.89,SW,224,3.0,7.0,74,0.00,,,0.00,0,HR-IXP-WINDi_r2_v1.2,2013-09-11 02:01:00,
2013-09-10 19:06:00,68.6,60.3,29.89,SSW,202,2.0,7.0,75,0.00,,,0.00,0,HR-IXP-WINDi_r2_v1.2,2013-09-11 02:06:00,
2013-09-10 19:11:00,68.2,59.9,29.90,SW,217,0.0,6.0,75,0.00,,,0.00,0,HR-IXP-WINDi_r2_v1.2,2013-09-11 02:11:00,
2013-09-10 19:16:00,68.3,60.4,29.90,South,178,0.0,6.0,76,0.00,,,0.00,0,HR-IXP-WINDi_r2_v1.2,2013-09-11 02:16:00,
2013-09-10 19:21:00,68.2,59.9,29.90,SSW,204,4.0,6.0,75,0.00,,,0.00,0,HR-IXP-WINDi_r2_v1.2,2013-09-11 02:21:00,
2013-09-10 19:26:00,68.0,59.7,29.90,South,188,2.0,6.0,75,0.00,,,0.00,0,HR-IXP-WINDi_r2_v1.2,2013-09-11 02:26:00,
2013-09-10 19:31:00,67.6,59.7,29.90,SW,224,2.0,5.0,76,0.00,,,0.00,0,HR-IXP-WINDi_r2_v1.2,2013-09-11 02:31:00,
2013-09-10 19:36:00,67.3,59.8,29.90,SW,220,2.0,6.0,77,0.00,,,0.00,0,HR-IXP-WINDi_r2_v1.2,2013-09-11 02:36:00,
2013-09-10 19:42:00,67.2,59.7,29.90,SSW,198,3.0,6.0,77,0.00,,,0.00,0,HR-IXP-WINDi_r2_v1.2,2013-09-11 02:42:00,
2013-09-10 19:47:00,67.1,59.9,29.90,SSW,195,0.0,5.0,78,0.00,,,0.00,0,HR-IXP-WINDi_r2_v1.2,2013-09-11 02:47:00,
2013-09-10 19:52:00,66.9,59.8,29.91,SW,216,1.0,5.0,78,0.00,,,0.00,0,HR-IXP-WINDi_r2_v1.2,2013-09-11 02:52:00,
2013-09-10 19:57:00,66.8,59.7,29.91,SSW,203,1.0,5.0,78,0.00,,,0.00,0,HR-IXP-WINDi_r2_v1.2,2013-09-11 02:57:00,
2013-09-10 20:03:00,66.6,59.5,29.91,WSW,237,2.0,4.0,78,0.00,,,0.00,0,HR-IXP-WINDi_r2_v1.2,2013-09-11 03:03:00,
2013-09-10 20:08:00,66.6,59.8,29.91,SW,224,5.0,6.0,79,0.00,,,0.00,0,HR-IXP-WINDi_r2_v1.2,2013-09-11 03:08:00,
2013-09-10 20:13:00,66.5,59.7,29.91,South,191,2.0,6.0,79,0.00,,,0.00,0,HR-IXP-WINDi_r2_v1.2,2013-09-11 03:13:00,
2013-09-10 20:18:00,66.3,59.5,29.92,South,189,1.0,5.0,79,0.00,,,0.00,0,HR-IXP-WINDi_r2_v1.2,2013-09-11 03:18:00,
2013-09-10 20:23:00,66.2,59.8,29.92,SSW,196,1.0,4.0,80,0.00,,,0.00,0,HR-IXP-WINDi_r2_v1.2,2013-09-11 03:23:00,
2013-09-10 20:29:00,66.0,59.6,29.92,SSW,196,1.0,4.0,80,0.00,,,0.00,0,HR-IXP-WINDi_r2_v1.2,2013-09-11 03:29:00,
2013-09-10 20:34:00,65.9,59.8,29.92,SSW,198,0.0,3.0,81,0.00,,,0.00,0,HR-IXP-WINDi_r2_v1.2,2013-09-11 03:34:00,
2013-09-10 20:40:00,65.9,59.8,29.93,SSW,198,0.0,3.0,81,0.00,,,0.00,0,HR-IXP-WINDi_r2_v1.2,2013-09-11 03:40:00,
2013-09-10 20:45:00,65.9,59.8,29.93,South,189,3.0,4.0,81,0.00,,,0.00,0,HR-IXP-WINDi_r2_v1.2,2013-09-11 03:45:00,
2013-09-10 20:50:00,65.8,60.1,29.93,South,189,2.0,4.0,82,0.00,,,0.00,0,HR-IXP-WINDi_r2_v1.2,2013-09-11 03:50:00,
2013-09-10 20:55:00,65.8,60.1,29.93,South,189,0.0,4.0,82,0.00,,,0.00,0,HR-IXP-WINDi_r2_v1.2,2013-09-11 03:55:00,
2013-09-10 21:01:00,65.8,60.1,29.93,South,189,0.0,3.0,82,0.00,,,0.00,0,HR-IXP-WINDi_r2_v1.2,2013-09-11 04:01:00,
2013-09-10 21:06:00,65.7,60.0,29.93,South,189,1.0,3.0,82,0.00,,,0.00,0,HR-IXP-WINDi_r2_v1.2,2013-09-11 04:06:00,
2013-09-10 21:11:00,65.6,59.9,29.93,South,189,1.0,2.0,82,0.00,,,0.00,0,HR-IXP-WINDi_r2_v1.2,2013-09-11 04:11:00,
2013-09-10 21:16:00,65.5,59.8,29.93,South,189,0.0,2.0,82,0.00,,,0.00,0,HR-IXP-WINDi_r2_v1.2,2013-09-11 04:16:00,
2013-09-10 21:21:00,65.5,59.8,29.93,South,188,0.0,2.0,82,0.00,,,0.00,0,HR-IXP-WINDi_r2_v1.2,2013-09-11 04:21:00,
2013-09-10 21:26:00,65.5,59.8,29.93,South,188,0.0,2.0,82,0.00,,,0.00,0,HR-IXP-WINDi_r2_v1.2,2013-09-11 04:26:00,
2013-09-10 21:31:00,65.4,59.7,29.93,South,188,0.0,3.0,82,0.00,,,0.00,0,HR-IXP-WINDi_r2_v1.2,2013-09-11 04:31:00,
2013-09-10 21:37:00,65.3,59.9,29.93,South,188,0.0,3.0,83,0.00,,,0.00,0,HR-IXP-WINDi_r2_v1.2,2013-09-11 04:37:00,
2013-09-10 21:42:00,65.4,60.0,29.93,South,188,0.0,1.0,83,0.00,,,0.00,0,HR-IXP-WINDi_r2_v1.2,2013-09-11 04:42:00,
2013-09-10 21:47:00,65.3,59.9,29.93,South,188,0.0,2.0,83,0.00,,,0.00,0,HR-IXP-WINDi_r2_v1.2,2013-09-11 04:47:00,
2013-09-10 21:52:00,65.2,59.8,29.93,South,188,0.0,2.0,83,0.00,,,0.00,0,HR-IXP-WINDi_r2_v1.2,2013-09-11 04:52:00,
2013-09-10 21:57:00,65.1,59.7,29.94,South,188,0.0,2.0,83,0.00,,,0.00,0,HR-IXP-WINDi_r2_v1.2,2013-09-11 04:57:00,
2013-09-10 22:02:00,65.0,59.6,29.94,South,188,0.0,1.0,83,0.00,,,0.00,0,HR-IXP-WINDi_r2_v1.2,2013-09-11 05:02:00,
2013-09-10 22:07:00,64.9,59.9,29.94,South,188,0.0,1.0,84,0.00,,,0.00,0,HR-IXP-WINDi_r2_v1.2,2013-09-11 05:07:00,
2013-09-10 22:12:00,64.7,59.7,29.94,South,188,0.0,0.0,84,0.00,,,0.00,0,HR-IXP-WINDi_r2_v1.2,2013-09-11 05:12:00,
2013-09-10 22:17:00,64.7,59.7,29.94,South,188,0.0,1.0,84,0.00,,,0.00,0,HR-IXP-WINDi_r2_v1.2,2013-09-11 05:17:00,
2013-09-10 22:23:00,64.6,59.6,29.94,South,188,0.0,1.0,84,0.00,,,0.00,0,HR-IXP-WINDi_r2_v1.2,2013-09-11 05:23:00,
2013-09-10 22:28:00,64.6,59.9,29.94,South,188,0.0,1.0,85,0.00,,,0.00,0,HR-IXP-WINDi_r2_v1.2,2013-09-11 05:28:00,
2013-09-10 22:33:00,64.6,59.9,29.94,South,188,1.0,1.0,85,0.00,,,0.00,0,HR-IXP-WINDi_r2_v1.2,2013-09-11 05:33:00,
2013-09-10 22:38:00,64.4,59.7,29.94,South,188,0.0,1.0,85,0.00,,,0.00,0,HR-IXP-WINDi_r2_v1.2,2013-09-11 05:38:00,
2013-09-10 22:44:00,64.4,59.7,29.94,South,188,0.0,2.0,85,0.00,,,0.00,0,HR-IXP-WINDi_r2_v1.2,2013-09-11 05:44:00,
2013-09-10 22:49:00,64.4,59.7,29.94,South,188,0.0,2.0,85,0.00,,,0.00,0,HR-IXP-WINDi_r2_v1.2,2013-09-11 05:49:00,
2013-09-10 22:54:00,64.4,59.7,29.95,South,188,0.0,0.0,85,0.00,,,0.00,0,HR-IXP-WINDi_r2_v1.2,2013-09-11 05:54:00,
2013-09-10 22:59:00,64.2,59.9,29.94,South,188,1.0,1.0,86,0.00,,,0.00,0,HR-IXP-WINDi_r2_v1.2,2013-09-11 05:59:00,
2013-09-10 23:05:00,64.2,59.9,29.95,South,188,0.0,1.0,86,0.00,,,0.00,0,HR-IXP-WINDi_r2_v1.2,2013-09-11 06:05:00,
2013-09-10 23:10:00,64.1,59.8,29.95,South,188,0.0,1.0,86,0.00,,,0.00,0,HR-IXP-WINDi_r2_v1.2,2013-09-11 06:10:00,
2013-09-10 23:15:00,64.1,59.8,29.95,South,188,0.0,2.0,86,0.00,,,0.00,0,HR-IXP-WINDi_r2_v1.2,2013-09-11 06:15:00,
2013-09-10 23:20:00,64.2,59.9,29.95,South,188,0.0,2.0,86,0.00,,,0.00,0,HR-IXP-WINDi_r2_v1.2,2013-09-11 06:20:00,
2013-09-10 23:25:00,64.1,59.8,29.95,South,188,1.0,1.0,86,0.00,,,0.00,0,HR-IXP-WINDi_r2_v1.2,2013-09-11 06:25:00,
2013-09-10 23:30:00,64.2,60.2,29.95,South,188,0.0,1.0,87,0.00,,,0.00,0,HR-IXP-WINDi_r2_v1.2,2013-09-11 06:30:00,
2013-09-10 23:36:00,64.1,59.8,29.95,South,188,0.0,1.0,86,0.00,,,0.00,0,HR-IXP-WINDi_r2_v1.2,2013-09-11 06:36:00,
2013-09-10 23:41:00,64.0,59.7,29.95,South,188,0.0,1.0,86,0.00,,,0.00,0,HR-IXP-WINDi_r2_v1.2,2013-09-11 06:41:00,
2013-09-10 23:46:00,64.0,60.0,29.95,South,188,0.0,1.0,87,0.00,,,0.00,0,HR-IXP-WINDi_r2_v1.2,2013-09-11 06:46:00,
2013-09-10 23:51:00,64.0,60.0,29.95,South,188,0.0,1.0,87,0.00,,,0.00,0,HR-IXP-WINDi_r2_v1.2,2013-09-11 06:51:00,
2013-09-10 23:56:00,63.9,59.9,29.95,South,188,0.0,1.0,87,0.00,,,0.00,0,HR-IXP-WINDi_r2_v1.2,2013-09-11 06:56:00,